Santa Cruz de la Sierra, Bolivia
Current Conditions -  °F | °C
As of 6:00 PM on Thursday 20 Nov 2014 (Local Time) from SLET Reporting Station
Broken Clouds Broken Clouds  
Wind Chill: 30°   Ceiling: 20000
Heat Index: 33°   Visibility: 6mi
Dew Point: 22°   Wind: 21mph
Humidity: 62%   Direction: 350°N
Pressure: 29.65"   Gusts: NA
Location:  17.79°S, 63.2°W
Report Text: SLET 202200Z 35018KT 9999 SCT022 FEW028CB BKN200 30/22 Q1004
Loading
Personal Weather Stations






























Interactive Weather Map New forecast layout! Learn more

10-Day Weather Forecast

Advertisements
Track Severe Weather on mobile